Time;durP1;ratioP1;P1;durP2;ratioP2;P2;SDS_P1;SDS_P2;PMS_P1;PMS_P2;Temp;Humidity;BMP_temperature;BMP_pressure;BME280_temperature;BME280_humidity;BME280_pressure;Samples;Min_cycle;Max_cycle;Signal;HPM_P1;HPM_P2
2022/11/04 00:01:20;;;;;;;;;;;;;;;;;;5017599;28;1096;-80
2022/11/04 00:03:48;;;;;;;;;;;;;;;;;;5016788;28;898;-79
2022/11/04 00:06:15;;;;;;;;;;;;;;;;;;5016300;28;932;-80
2022/11/04 00:08:41;;;;;;;;;;;;;;;;;;5005539;28;1289;-80
2022/11/04 00:13:55;;;;;;;;;;;;;;;;;;4999412;28;1116;-79
2022/11/04 00:19:07;;;;;;;;;;;;;;;;;;5047195;28;1359;-81
2022/11/04 00:29:45;;;;;;;;;;;;;;;;;;4977946;28;1427;-81
2022/11/04 00:35:02;;;;;;;;;;;;;;;;;;4960498;28;1064;-81
2022/11/04 00:37:29;;;;;;;;;;;;;;;;;;4980268;28;1932;-80
2022/11/04 00:39:55;;;;;;;;;;;;;;;;;;4999036;28;1282;-81
2022/11/04 00:42:23;;;;;;;;;;;;;;;;;;5003061;28;810;-77
2022/11/04 00:44:50;;;;;;;;;;;;;;;;;;4984653;28;1419;-80
2022/11/04 00:47:16;;;;;;;;;;;;;;;;;;5000010;28;896;-80
2022/11/04 00:49:43;;;;;;;;;;;;;;;;;;4997737;28;1262;-79
2022/11/04 00:52:11;;;;;;;;;;;;;;;;;;5003997;28;893;-80
2022/11/04 00:54:37;;;;;;;;;;;;;;;;;;4981701;28;990;-82
2022/11/04 00:57:04;;;;;;;;;;;;;;;;;;5003577;28;1934;-79
2022/11/04 00:59:33;;;;;;;;;;;;;;;;;;5000036;28;1293;-79
2022/11/04 01:01:59;;;;;;;;;;;;;;;;;;5016078;28;964;-79
2022/11/04 01:04:26;;;;;;;;;;;;;;;;;;5010276;28;857;-81
2022/11/04 01:06:55;;;;;;;;;;;;;;;;;;5003656;28;833;-80
2022/11/04 01:09:23;;;;;;;;;;;;;;;;;;5005291;28;1308;-80
2022/11/04 01:11:49;;;;;;;;;;;;;;;;;;5000622;28;1091;-79
2022/11/04 01:14:16;;;;;;;;;;;;;;;;;;5005622;28;853;-79
2022/11/04 01:16:42;;;;;;;;;;;;;;;;;;5000739;28;1964;-79
2022/11/04 01:19:09;;;;;;;;;;;;;;;;;;4979656;28;1318;-79
2022/11/04 01:21:36;;;;;;;;;;;;;;;;;;4980103;28;1707;-80
2022/11/04 01:24:03;;;;;;;;;;;;;;;;;;4997372;28;771;-79
2022/11/04 01:26:31;;;;;;;;;;;;;;;;;;5002061;28;901;-79
2022/11/04 01:28:58;;;;;;;;;;;;;;;;;;5002229;28;1439;-80
2022/11/04 01:31:27;;;;;;;;;;;;;;;;;;5004912;28;869;-79
2022/11/04 01:33:54;;;;;;;;;;;;;;;;;;5004389;28;1065;-79
2022/11/04 01:36:22;;;;;;;;;;;;;;;;;;5008576;28;2006;-80
2022/11/04 01:38:49;;;;;;;;;;;;;;;;;;4999802;28;1349;-79
2022/11/04 01:41:19;;;;;;;;;;;;;;;;;;5003292;28;829;-79
2022/11/04 01:43:49;;;;;;;;;;;;;;;;;;5015826;28;980;-79
2022/11/04 01:46:18;;;;;;;;;;;;;;;;;;5016789;28;1052;-79
2022/11/04 01:48:45;;;;;;;;;;;;;;;;;;4986931;28;1364;-80
2022/11/04 01:51:11;;;;;;;;;;;;;;;;;;5001503;28;818;-80
2022/11/04 01:53:39;;;;;;;;;;;;;;;;;;5003483;28;842;-81
2022/11/04 01:56:10;;;;;;;;;;;;;;;;;;4999328;28;751;-79
2022/11/04 01:58:38;;;;;;;;;;;;;;;;;;4974747;28;2014;-81
2022/11/04 02:01:06;;;;;;;;;;;;;;;;;;5004170;28;885;-80
2022/11/04 02:03:34;;;;;;;;;;;;;;;;;;5002982;28;925;-80
2022/11/04 02:06:01;;;;;;;;;;;;;;;;;;5004890;28;913;-79
2022/11/04 02:08:28;;;;;;;;;;;;;;;;;;5003765;28;1285;-81
2022/11/04 02:10:56;;;;;;;;;;;;;;;;;;5008062;28;1059;-80
2022/11/04 02:13:22;;;;;;;;;;;;;;;;;;5004704;28;846;-80
2022/11/04 02:15:52;;;;;;;;;;;;;;;;;;4981558;28;1249;-80
2022/11/04 02:18:26;;;;;;;;;;;;;;;;;;5000719;28;1971;-81
2022/11/04 02:21:11;;;;;;;;;;;;;;;;;;4999935;28;1408;-79
2022/11/04 02:23:43;;;;;;;;;;;;;;;;;;5007716;28;988;-79
2022/11/04 02:26:37;;;;;;;;;;;;;;;;;;5002833;28;838;-80
2022/11/04 02:29:14;;;;;;;;;;;;;;;;;;4995970;28;1365;-79
2022/11/04 02:31:41;;;;;;;;;;;;;;;;;;5023548;28;1008;-78
2022/11/04 02:34:10;;;;;;;;;;;;;;;;;;4996387;28;990;-79
2022/11/04 02:36:38;;;;;;;;;;;;;;;;;;5009038;28;1922;-79
2022/11/04 02:39:06;;;;;;;;;;;;;;;;;;5006622;28;1297;-79
2022/11/04 02:41:35;;;;;;;;;;;;;;;;;;5006571;28;861;-80
2022/11/04 02:44:02;;;;;;;;;;;;;;;;;;5007989;28;902;-79
2022/11/04 02:46:31;;;;;;;;;;;;;;;;;;5007998;28;897;-80
2022/11/04 02:48:59;;;;;;;;;;;;;;;;;;5003421;28;1336;-80
2022/11/04 02:51:27;;;;;;;;;;;;;;;;;;4979946;28;1146;-80
2022/11/04 02:53:56;;;;;;;;;;;;;;;;;;5001618;28;1215;-80
2022/11/04 02:56:22;;;;;;;;;;;;;;;;;;5002907;28;1237;-80
2022/11/04 02:58:51;;;;;;;;;;;;;;;;;;5015867;28;1961;-79
2022/11/04 03:01:18;;;;;;;;;;;;;;;;;;5005660;28;1233;-79
2022/11/04 03:03:49;;;;;;;;;;;;;;;;;;5005058;28;1175;-79
2022/11/04 03:06:19;;;;;;;;;;;;;;;;;;5006689;28;898;-79
2022/11/04 03:08:46;;;;;;;;;;;;;;;;;;5000150;28;1294;-80
2022/11/04 03:11:14;;;;;;;;;;;;;;;;;;4984650;28;986;-79
2022/11/04 03:13:42;;;;;;;;;;;;;;;;;;4986051;28;1120;-79
2022/11/04 03:16:09;;;;;;;;;;;;;;;;;;4991449;28;989;-79
2022/11/04 03:18:37;;;;;;;;;;;;;;;;;;5020561;28;1983;-78
2022/11/04 03:21:06;;;;;;;;;;;;;;;;;;4992086;28;1129;-79
2022/11/04 03:23:33;;;;;;;;;;;;;;;;;;4983682;28;1092;-81
2022/11/04 03:26:02;;;;;;;;;;;;;;;;;;4998197;28;1290;-81
2022/11/04 03:28:31;;;;;;;;;;;;;;;;;;4978772;28;1266;-81
2022/11/04 03:30:59;;;;;;;;;;;;;;;;;;4998370;28;941;-79
2022/11/04 03:33:26;;;;;;;;;;;;;;;;;;4993528;28;1104;-80
2022/11/04 03:35:53;;;;;;;;;;;;;;;;;;5006616;28;866;-80
2022/11/04 03:38:21;;;;;;;;;;;;;;;;;;5000220;28;1929;-79
2022/11/04 03:40:48;;;;;;;;;;;;;;;;;;5001240;28;838;-79
2022/11/04 03:43:15;;;;;;;;;;;;;;;;;;4977165;28;1099;-79
2022/11/04 03:45:42;;;;;;;;;;;;;;;;;;5003584;28;841;-79
2022/11/04 03:48:08;;;;;;;;;;;;;;;;;;5001678;28;1428;-79
2022/11/04 03:50:40;;;;;;;;;;;;;;;;;;5040486;22;1994;-77
2022/11/04 03:53:06;;;;;;;;;;;;;;;;;;5007269;28;1030;-78
2022/11/04 03:55:38;;;;;;;;;;;;;;;;;;5001262;28;1068;-78
2022/11/04 03:58:08;;;;;;;;;;;;;;;;;;5003780;28;1933;-77
2022/11/04 04:00:36;;;;;;;;;;;;;;;;;;5000360;28;1306;-77
2022/11/04 04:03:04;;;;;;;;;;;;;;;;;;4981424;28;1161;-77
2022/11/04 04:05:31;;;;;;;;;;;;;;;;;;4999025;28;945;-77
2022/11/04 04:08:01;;;;;;;;;;;;;;;;;;5000586;28;870;-77
2022/11/04 04:10:41;;;;;;;;;;;;;;;;;;4976008;28;1420;-78
2022/11/04 04:13:12;;;;;;;;;;;;;;;;;;4979385;28;1571;-78
2022/11/04 04:15:41;;;;;;;;;;;;;;;;;;5002910;28;1131;-77
2022/11/04 04:18:08;;;;;;;;;;;;;;;;;;4980256;28;1994;-78
2022/11/04 04:20:35;;;;;;;;;;;;;;;;;;5048700;28;1622;-79
2022/11/04 04:23:02;;;;;;;;;;;;;;;;;;5073726;28;1064;-78
2022/11/04 04:28:14;;;;;;;;;;;;;;;;;;5078526;28;1032;-80
2022/11/04 04:30:41;;;;;;;;;;;;;;;;;;5077748;28;1288;-80
2022/11/04 04:33:08;;;;;;;;;;;;;;;;;;5076627;28;1154;-80
2022/11/04 04:35:42;;;;;;;;;;;;;;;;;;5078708;28;743;-80
2022/11/04 04:46:23;;;;;;;;;;;;;;;;;;5061213;28;1283;-80
2022/11/04 04:48:49;;;;;;;;;;;;;;;;;;5079112;28;1096;-80
2022/11/04 04:51:15;;;;;;;;;;;;;;;;;;5076570;28;1383;-78
2022/11/04 04:53:41;;;;;;;;;;;;;;;;;;5060520;28;1205;-80
2022/11/04 04:56:07;;;;;;;;;;;;;;;;;;5079697;28;1055;-80
2022/11/04 04:58:34;;;;;;;;;;;;;;;;;;5079613;28;1910;-80
2022/11/04 05:01:01;;;;;;;;;;;;;;;;;;5081246;28;1371;-80
2022/11/04 05:03:27;;;;;;;;;;;;;;;;;;5081153;28;1064;-80
2022/11/04 05:05:54;;;;;;;;;;;;;;;;;;5083808;28;1150;-80
2022/11/04 05:08:20;;;;;;;;;;;;;;;;;;5082281;28;1458;-81
2022/11/04 05:10:46;;;;;;;;;;;;;;;;;;5083206;28;1418;-80
2022/11/04 05:13:28;;;;;;;;;;;;;;;;;;5071512;28;1108;-80
2022/11/04 05:15:55;;;;;;;;;;;;;;;;;;5080070;28;1178;-80
2022/11/04 05:18:22;;;;;;;;;;;;;;;;;;5063610;28;1910;-79
2022/11/04 05:20:49;;;;;;;;;;;;;;;;;;5081401;28;1373;-79
2022/11/04 05:23:15;;;;;;;;;;;;;;;;;;5080694;28;993;-79
2022/11/04 05:25:41;;;;;;;;;;;;;;;;;;5062669;28;1086;-79
2022/11/04 05:28:07;;;;;;;;;;;;;;;;;;5062222;28;1217;-80
2022/11/04 05:30:34;;;;;;;;;;;;;;;;;;5080590;28;1363;-80
2022/11/04 05:33:00;;;;;;;;;;;;;;;;;;5061007;28;1237;-79
2022/11/04 05:35:28;;;;;;;;;;;;;;;;;;5079374;28;1648;-80
2022/11/04 05:37:54;;;;;;;;;;;;;;;;;;5055610;28;1973;-78
2022/11/04 05:40:20;;;;;;;;;;;;;;;;;;5068011;28;1471;-78
2022/11/04 05:42:47;;;;;;;;;;;;;;;;;;5074810;28;1726;-77
2022/11/04 05:45:13;;;;;;;;;;;;;;;;;;5056948;28;1409;-78
2022/11/04 05:47:39;;;;;;;;;;;;;;;;;;5055443;28;1363;-77
2022/11/04 05:50:05;;;;;;;;;;;;;;;;;;5070861;28;1419;-78
2022/11/04 05:52:33;;;;;;;;;;;;;;;;;;5073791;28;1439;-77
2022/11/04 05:54:59;;;;;;;;;;;;;;;;;;5076111;28;1305;-77
2022/11/04 05:57:25;;;;;;;;;;;;;;;;;;5075636;28;933;-78
2022/11/04 05:59:51;;;;;;;;;;;;;;;;;;5074729;28;1383;-77
2022/11/04 06:02:18;;;;;;;;;;;;;;;;;;5057080;28;1113;-78
2022/11/04 06:04:44;;;;;;;;;;;;;;;;;;5074748;28;760;-77
2022/11/04 06:07:10;;;;;;;;;;;;;;;;;;5072943;28;1130;-77
2022/11/04 06:09:41;;;;;;;;;;;;;;;;;;5072728;28;1325;-77
2022/11/04 06:12:07;;;;;;;;;;;;;;;;;;5054139;28;1216;-77
2022/11/04 06:14:34;;;;;;;;;;;;;;;;;;5054770;28;1260;-77
2022/11/04 06:17:00;;;;;;;;;;;;;;;;;;5054149;28;1195;-77
2022/11/04 06:19:26;;;;;;;;;;;;;;;;;;5072666;28;1918;-76
2022/11/04 06:21:53;;;;;;;;;;;;;;;;;;5072118;28;1004;-77
2022/11/04 06:24:19;;;;;;;;;;;;;;;;;;5074025;28;1064;-77
2022/11/04 06:26:46;;;;;;;;;;;;;;;;;;5058460;28;1499;-78
2022/11/04 06:29:13;;;;;;;;;;;;;;;;;;5054225;28;1072;-77
2022/11/04 06:31:39;;;;;;;;;;;;;;;;;;5035688;28;1385;-77
2022/11/04 06:34:05;;;;;;;;;;;;;;;;;;5054008;28;1075;-77
2022/11/04 06:36:31;;;;;;;;;;;;;;;;;;5053706;28;1064;-77
2022/11/04 06:38:57;;;;;;;;;;;;;;;;;;5056049;28;1914;-76
2022/11/04 06:41:23;;;;;;;;;;;;;;;;;;5064029;28;1458;-76
2022/11/04 06:43:51;;;;;;;;;;;;;;;;;;5066236;28;1732;-77
2022/11/04 06:46:24;;;;;;;;;;;;;;;;;;5070069;28;1242;-79
2022/11/04 06:48:51;;;;;;;;;;;;;;;;;;5055563;28;1455;-80
2022/11/04 06:51:17;;;;;;;;;;;;;;;;;;5049307;28;1314;-75
2022/11/04 06:53:43;;;;;;;;;;;;;;;;;;5054759;28;1475;-77
2022/11/04 06:56:09;;;;;;;;;;;;;;;;;;5073020;28;1272;-77
2022/11/04 06:58:35;;;;;;;;;;;;;;;;;;5072945;28;1906;-77
2022/11/04 07:01:03;;;;;;;;;;;;;;;;;;5054192;28;1463;-78
2022/11/04 07:03:29;;;;;;;;;;;;;;;;;;5072128;28;1396;-78
2022/11/04 07:05:55;;;;;;;;;;;;;;;;;;5075187;28;1181;-78
2022/11/04 07:08:22;;;;;;;;;;;;;;;;;;5070046;28;1391;-77
2022/11/04 07:10:48;;;;;;;;;;;;;;;;;;5073996;28;1377;-78
2022/11/04 07:13:15;;;;;;;;;;;;;;;;;;5074183;28;1079;-77
2022/11/04 07:15:41;;;;;;;;;;;;;;;;;;5070011;28;1368;-81
2022/11/04 07:18:09;;;;;;;;;;;;;;;;;;5074812;28;1937;-78
2022/11/04 07:20:36;;;;;;;;;;;;;;;;;;5054339;28;1459;-76
2022/11/04 07:23:02;;;;;;;;;;;;;;;;;;5071535;28;1133;-77
2022/11/04 07:25:28;;;;;;;;;;;;;;;;;;5072782;28;1064;-76
2022/11/04 07:27:54;;;;;;;;;;;;;;;;;;5071939;28;1498;-77
2022/11/04 07:30:20;;;;;;;;;;;;;;;;;;5064629;28;1494;-75
2022/11/04 07:32:46;;;;;;;;;;;;;;;;;;5068140;28;1255;-77
2022/11/04 07:35:14;;;;;;;;;;;;;;;;;;5056401;28;1183;-78
2022/11/04 07:37:40;;;;;;;;;;;;;;;;;;5073312;28;1419;-78
2022/11/04 07:40:07;;;;;;;;;;;;;;;;;;5070774;28;1918;-78
2022/11/04 07:42:33;;;;;;;;;;;;;;;;;;5053325;28;1477;-76
2022/11/04 07:45:06;;;;;;;;;;;;;;;;;;5053392;28;1453;-78
2022/11/04 07:47:32;;;;;;;;;;;;;;;;;;5073190;28;985;-76
2022/11/04 07:49:58;;;;;;;;;;;;;;;;;;5071361;28;1420;-77
2022/11/04 07:52:26;;;;;;;;;;;;;;;;;;5071771;28;1193;-77
2022/11/04 07:54:52;;;;;;;;;;;;;;;;;;5073771;28;925;-77
2022/11/04 07:57:18;;;;;;;;;;;;;;;;;;5053455;28;1442;-77
2022/11/04 07:59:45;;;;;;;;;;;;;;;;;;5075216;28;1902;-77
2022/11/04 08:02:11;;;;;;;;;;;;;;;;;;5074405;28;913;-76
2022/11/04 08:04:37;;;;;;;;;;;;;;;;;;5056099;28;1090;-77
2022/11/04 08:07:06;;;;;;;;;;;;;;;;;;5073721;28;1072;-77
2022/11/04 08:09:35;;;;;;;;;;;;;;;;;;5067512;28;1419;-77
2022/11/04 08:12:01;;;;;;;;;;;;;;;;;;5069471;28;1794;-76
2022/11/04 08:14:27;;;;;;;;;;;;;;;;;;5051432;28;1136;-76
2022/11/04 08:16:54;;;;;;;;;;;;;;;;;;5071274;28;977;-76
2022/11/04 08:19:20;;;;;;;;;;;;;;;;;;5071079;28;1963;-77
2022/11/04 08:21:46;;;;;;;;;;;;;;;;;;5053500;28;1863;-77
2022/11/04 08:24:12;;;;;;;;;;;;;;;;;;5069362;28;1387;-75
2022/11/04 08:26:40;;;;;;;;;;;;;;;;;;5069924;28;1582;-78
2022/11/04 08:29:06;;;;;;;;;;;;;;;;;;5064622;28;1391;-77
2022/11/04 08:31:33;;;;;;;;;;;;;;;;;;5069336;28;1589;-78
2022/11/04 08:33:59;;;;;;;;;;;;;;;;;;5072665;28;1447;-77
2022/11/04 08:36:27;;;;;;;;;;;;;;;;;;5061974;28;1204;-79
2022/11/04 08:38:53;;;;;;;;;;;;;;;;;;5080385;28;1883;-76
2022/11/04 08:41:20;;;;;;;;;;;;;;;;;;5074648;28;1384;-77
2022/11/04 08:43:48;;;;;;;;;;;;;;;;;;5075335;28;1379;-77
2022/11/04 08:46:14;;;;;;;;;;;;;;;;;;5069056;28;1406;-77
2022/11/04 08:48:41;;;;;;;;;;;;;;;;;;5073611;28;1237;-77
2022/11/04 08:51:10;;;;;;;;;;;;;;;;;;5073682;28;1490;-78
2022/11/04 08:53:37;;;;;;;;;;;;;;;;;;5073057;28;1115;-78
2022/11/04 08:56:08;;;;;;;;;;;;;;;;;;5071576;28;1400;-78
2022/11/04 08:58:35;;;;;;;;;;;;;;;;;;5070366;28;2213;-78
2022/11/04 09:01:04;;;;;;;;;;;;;;;;;;5070666;28;1763;-78
2022/11/04 09:03:31;;;;;;;;;;;;;;;;;;5076769;28;1446;-79
2022/11/04 09:05:57;;;;;;;;;;;;;;;;;;5079927;28;1175;-79
2022/11/04 09:08:24;;;;;;;;;;;;;;;;;;5084942;28;1604;-80
2022/11/04 09:10:50;;;;;;;;;;;;;;;;;;5082747;28;1297;-79
2022/11/04 09:13:16;;;;;;;;;;;;;;;;;;5058758;28;1276;-79
2022/11/04 09:15:43;;;;;;;;;;;;;;;;;;5066717;28;1403;-79
2022/11/04 09:18:10;;;;;;;;;;;;;;;;;;5072979;28;1787;-77
2022/11/04 09:20:38;;;;;;;;;;;;;;;;;;5061647;28;1914;-77
2022/11/04 09:23:04;;;;;;;;;;;;;;;;;;5091536;28;1527;-78
2022/11/04 09:25:31;;;;;;;;;;;;;;;;;;5083727;28;1343;-77
2022/11/04 09:27:58;;;;;;;;;;;;;;;;;;5075583;28;1542;-77
2022/11/04 09:30:24;;;;;;;;;;;;;;;;;;5073000;28;1543;-78
2022/11/04 09:32:50;;;;;;;;;;;;;;;;;;5071712;28;1133;-77
2022/11/04 09:35:18;;;;;;;;;;;;;;;;;;5070940;28;1036;-76
2022/11/04 09:37:45;;;;;;;;;;;;;;;;;;5072128;28;1471;-78
2022/11/04 09:40:12;;;;;;;;;;;;;;;;;;5069049;28;1965;-77
2022/11/04 09:42:41;;;;;;;;;;;;;;;;;;5047081;28;1495;-75
2022/11/04 09:45:09;;;;;;;;;;;;;;;;;;5070005;28;1118;-78
2022/11/04 09:47:36;;;;;;;;;;;;;;;;;;5055084;28;1324;-76
2022/11/04 09:50:02;;;;;;;;;;;;;;;;;;5052053;28;1835;-77
2022/11/04 09:52:30;;;;;;;;;;;;;;;;;;5071969;28;1694;-78
2022/11/04 09:54:58;;;;;;;;;;;;;;;;;;5058311;28;1488;-78
2022/11/04 09:57:25;;;;;;;;;;;;;;;;;;5060024;22;4021;-74
2022/11/04 09:59:51;;;;;;;;;;;;;;;;;;5009719;28;1965;-75
2022/11/04 10:02:35;;;;;;;;;;;;;;;;;;5012670;28;1395;-75
2022/11/04 10:05:04;;;;;;;;;;;;;;;;;;5004708;28;1446;-75
2022/11/04 10:07:36;;;;;;;;;;;;;;;;;;5005060;28;1399;-74
2022/11/04 10:10:04;;;;;;;;;;;;;;;;;;4981406;28;1204;-74
2022/11/04 10:12:40;;;;;;;;;;;;;;;;;;4987516;28;1436;-74
2022/11/04 10:15:24;;;;;;;;;;;;;;;;;;4972829;28;1063;-74
2022/11/04 10:17:56;;;;;;;;;;;;;;;;;;4984349;28;1837;-74
2022/11/04 10:20:26;;;;;;;;;;;;;;;;;;4989718;28;1906;-74
2022/11/04 10:22:57;;;;;;;;;;;;;;;;;;4985683;28;1400;-75
2022/11/04 10:25:25;;;;;;;;;;;;;;;;;;4987432;28;1089;-75
2022/11/04 10:27:51;;;;;;;;;;;;;;;;;;4991851;28;1392;-75
2022/11/04 10:30:18;;;;;;;;;;;;;;;;;;4991797;28;1405;-75
2022/11/04 10:32:47;;;;;;;;;;;;;;;;;;4989455;28;1051;-73
2022/11/04 10:35:15;;;;;;;;;;;;;;;;;;4990528;28;929;-73
2022/11/04 10:37:41;;;;;;;;;;;;;;;;;;4990721;28;1326;-74
2022/11/04 10:40:16;;;;;;;;;;;;;;;;;;4991828;28;1911;-74
2022/11/04 10:42:43;;;;;;;;;;;;;;;;;;4994258;28;1128;-72
2022/11/04 10:45:10;;;;;;;;;;;;;;;;;;4972221;28;1165;-74
2022/11/04 10:47:38;;;;;;;;;;;;;;;;;;4971344;28;1513;-74
2022/11/04 10:50:14;;;;;;;;;;;;;;;;;;4987106;28;1350;-75
2022/11/04 10:52:41;;;;;;;;;;;;;;;;;;4989122;28;1145;-74
2022/11/04 10:55:11;;;;;;;;;;;;;;;;;;4996161;28;1470;-73
2022/11/04 10:57:38;;;;;;;;;;;;;;;;;;5013700;28;1444;-74
2022/11/04 11:00:05;;;;;;;;;;;;;;;;;;4994917;28;1918;-74
2022/11/04 11:02:42;;;;;;;;;;;;;;;;;;4986741;28;1478;-74
2022/11/04 11:05:12;;;;;;;;;;;;;;;;;;4998539;28;1616;-74
2022/11/04 11:07:38;;;;;;;;;;;;;;;;;;4988053;28;1506;-74
2022/11/04 11:10:06;;;;;;;;;;;;;;;;;;4993780;28;1496;-74
2022/11/04 11:12:39;;;;;;;;;;;;;;;;;;5002916;28;1237;-74
2022/11/04 11:15:17;;;;;;;;;;;;;;;;;;5001124;28;1466;-74
2022/11/04 11:17:44;;;;;;;;;;;;;;;;;;4988157;28;1451;-73
2022/11/04 11:20:18;;;;;;;;;;;;;;;;;;4988267;28;1910;-75
2022/11/04 11:22:44;;;;;;;;;;;;;;;;;;4982160;28;1452;-73
2022/11/04 11:25:17;;;;;;;;;;;;;;;;;;4989008;28;1198;-75
2022/11/04 11:27:45;;;;;;;;;;;;;;;;;;4989887;28;1419;-74
2022/11/04 11:30:20;;;;;;;;;;;;;;;;;;4989970;28;914;-73
2022/11/04 11:32:52;;;;;;;;;;;;;;;;;;4988072;28;1072;-73
2022/11/04 11:35:18;;;;;;;;;;;;;;;;;;4984552;28;1573;-73
2022/11/04 11:37:44;;;;;;;;;;;;;;;;;;4994960;28;1479;-74
2022/11/04 11:40:22;;;;;;;;;;;;;;;;;;4987189;28;1965;-74
2022/11/04 11:42:49;;;;;;;;;;;;;;;;;;4968648;28;1118;-73
2022/11/04 11:45:15;;;;;;;;;;;;;;;;;;4969710;28;1040;-74
2022/11/04 11:47:42;;;;;;;;;;;;;;;;;;4976171;28;1521;-73
2022/11/04 11:50:14;;;;;;;;;;;;;;;;;;4994157;28;1577;-74
2022/11/04 11:52:41;;;;;;;;;;;;;;;;;;4973981;28;1189;-74
2022/11/04 11:55:09;;;;;;;;;;;;;;;;;;4985146;28;1497;-75
2022/11/04 11:57:39;;;;;;;;;;;;;;;;;;4985013;28;1522;-75
2022/11/04 12:00:09;;;;;;;;;;;;;;;;;;4989122;28;1914;-75
2022/11/04 12:02:51;;;;;;;;;;;;;;;;;;4978868;28;1467;-75
2022/11/04 12:05:18;;;;;;;;;;;;;;;;;;4989008;28;1220;-75
2022/11/04 12:07:47;;;;;;;;;;;;;;;;;;4989370;28;1318;-73
2022/11/04 12:10:15;;;;;;;;;;;;;;;;;;4989237;28;663;-75
2022/11/04 12:12:44;;;;;;;;;;;;;;;;;;4987897;28;1092;-74
2022/11/04 12:15:21;;;;;;;;;;;;;;;;;;4988331;28;1266;-77
2022/11/04 12:17:53;;;;;;;;;;;;;;;;;;4988888;28;1447;-76
2022/11/04 12:20:25;;;;;;;;;;;;;;;;;;4988772;28;1965;-75
2022/11/04 12:22:54;;;;;;;;;;;;;;;;;;4988018;28;1147;-75
2022/11/04 12:25:22;;;;;;;;;;;;;;;;;;4989088;28;930;-76
2022/11/04 12:27:51;;;;;;;;;;;;;;;;;;4988125;28;1396;-75
2022/11/04 12:30:18;;;;;;;;;;;;;;;;;;4983816;28;1330;-74
2022/11/04 12:32:48;;;;;;;;;;;;;;;;;;4985379;28;1318;-72
2022/11/04 12:35:23;;;;;;;;;;;;;;;;;;4986189;28;1318;-74
2022/11/04 12:37:51;;;;;;;;;;;;;;;;;;4984927;28;1364;-75
2022/11/04 12:40:19;;;;;;;;;;;;;;;;;;4987665;28;1903;-75
2022/11/04 12:42:54;;;;;;;;;;;;;;;;;;4986253;28;1203;-72
2022/11/04 12:45:26;;;;;;;;;;;;;;;;;;4987109;28;1314;-74
2022/11/04 12:47:52;;;;;;;;;;;;;;;;;;4988048;28;1471;-73
2022/11/04 12:50:26;;;;;;;;;;;;;;;;;;4988475;28;1243;-75
2022/11/04 12:52:59;;;;;;;;;;;;;;;;;;4984089;28;1336;-75
2022/11/04 12:55:31;;;;;;;;;;;;;;;;;;4968845;28;1068;-74
2022/11/04 12:57:59;;;;;;;;;;;;;;;;;;4969730;28;1314;-73
2022/11/04 13:00:27;;;;;;;;;;;;;;;;;;4969035;28;1902;-74
2022/11/04 13:02:55;;;;;;;;;;;;;;;;;;4967885;28;1060;-74
2022/11/04 13:05:26;;;;;;;;;;;;;;;;;;4968975;28;1060;-74
2022/11/04 13:07:54;;;;;;;;;;;;;;;;;;4969242;28;1270;-74
2022/11/04 13:10:21;;;;;;;;;;;;;;;;;;4969389;28;1107;-73
2022/11/04 13:12:47;;;;;;;;;;;;;;;;;;4967744;28;981;-74
2022/11/04 13:15:15;;;;;;;;;;;;;;;;;;4969179;28;1001;-75
2022/11/04 13:17:41;;;;;;;;;;;;;;;;;;4984120;28;1306;-74
2022/11/04 13:20:13;;;;;;;;;;;;;;;;;;4983751;28;1973;-75
2022/11/04 13:22:42;;;;;;;;;;;;;;;;;;4970354;28;1068;-74
2022/11/04 13:25:10;;;;;;;;;;;;;;;;;;4972152;28;1052;-75
2022/11/04 13:27:37;;;;;;;;;;;;;;;;;;4972363;28;1369;-76
2022/11/04 13:30:05;;;;;;;;;;;;;;;;;;4987087;28;1084;-75
2022/11/04 13:32:32;;;;;;;;;;;;;;;;;;4971086;28;1103;-75
2022/11/04 13:34:59;;;;;;;;;;;;;;;;;;4971934;28;917;-75
2022/11/04 13:37:26;;;;;;;;;;;;;;;;;;4987484;28;1420;-75
2022/11/04 13:39:54;;;;;;;;;;;;;;;;;;4972189;28;1978;-75
2022/11/04 13:42:24;;;;;;;;;;;;;;;;;;4971224;28;1099;-75
2022/11/04 13:44:51;;;;;;;;;;;;;;;;;;4971727;28;937;-75
2022/11/04 13:47:17;;;;;;;;;;;;;;;;;;4972289;28;1399;-75
2022/11/04 13:49:47;;;;;;;;;;;;;;;;;;4970293;28;810;-76
2022/11/04 13:52:14;;;;;;;;;;;;;;;;;;4971166;28;1107;-75
2022/11/04 13:54:41;;;;;;;;;;;;;;;;;;4971902;28;1080;-75
2022/11/04 13:57:09;;;;;;;;;;;;;;;;;;4987662;28;1325;-75
2022/11/04 13:59:36;;;;;;;;;;;;;;;;;;4987786;28;1200;-75
2022/11/04 14:02:20;;;;;;;;;;;;;;;;;;4972217;28;1914;-76
2022/11/04 14:04:47;;;;;;;;;;;;;;;;;;4994006;28;1405;-74
2022/11/04 14:07:16;;;;;;;;;;;;;;;;;;4999867;28;1450;-75
2022/11/04 14:09:52;;;;;;;;;;;;;;;;;;4991891;28;1848;-75
2022/11/04 14:12:34;;;;;;;;;;;;;;;;;;5002689;28;1415;-74
2022/11/04 14:15:04;;;;;;;;;;;;;;;;;;4971848;28;869;-75
2022/11/04 14:17:50;;;;;;;;;;;;;;;;;;4972137;28;1328;-75
2022/11/04 14:20:21;;;;;;;;;;;;;;;;;;4982332;28;1910;-75
2022/11/04 14:22:48;;;;;;;;;;;;;;;;;;4990661;28;1126;-75
2022/11/04 14:25:19;;;;;;;;;;;;;;;;;;4989867;28;1203;-75
2022/11/04 14:27:47;;;;;;;;;;;;;;;;;;4989717;28;1411;-75
2022/11/04 14:30:26;;;;;;;;;;;;;;;;;;4990512;28;1200;-74
2022/11/04 14:32:54;;;;;;;;;;;;;;;;;;4989809;28;1095;-74
2022/11/04 14:35:20;;;;;;;;;;;;;;;;;;4994268;28;1059;-76
2022/11/04 14:37:46;;;;;;;;;;;;;;;;;;5004368;28;1395;-75
2022/11/04 14:40:24;;;;;;;;;;;;;;;;;;5001749;28;1952;-75
2022/11/04 14:42:52;;;;;;;;;;;;;;;;;;4985631;28;1412;-74
2022/11/04 14:45:20;;;;;;;;;;;;;;;;;;4995811;28;1248;-75
2022/11/04 14:47:46;;;;;;;;;;;;;;;;;;4983548;28;1530;-75
2022/11/04 14:50:14;;;;;;;;;;;;;;;;;;4987269;28;1371;-75
2022/11/04 14:52:44;;;;;;;;;;;;;;;;;;4991039;28;1485;-74
2022/11/04 14:55:12;;;;;;;;;;;;;;;;;;5000868;28;1741;-74
2022/11/04 14:57:39;;;;;;;;;;;;;;;;;;4989574;28;2091;-75
2022/11/04 15:00:22;;;;;;;;;;;;;;;;;;4984733;28;1220;-75
2022/11/04 15:02:49;;;;;;;;;;;;;;;;;;4990523;28;627;-75
2022/11/04 15:05:21;;;;;;;;;;;;;;;;;;4990460;28;1087;-74
2022/11/04 15:07:47;;;;;;;;;;;;;;;;;;4996889;28;1485;-75
2022/11/04 15:10:18;;;;;;;;;;;;;;;;;;4990517;28;1165;-75
2022/11/04 15:12:53;;;;;;;;;;;;;;;;;;4989838;28;1103;-74
2022/11/04 15:15:28;;;;;;;;;;;;;;;;;;4988950;28;2624;-75
2022/11/04 15:17:54;;;;;;;;;;;;;;;;;;4990025;28;1338;-75
2022/11/04 15:20:21;;;;;;;;;;;;;;;;;;4989012;28;1812;-73
2022/11/04 15:22:48;;;;;;;;;;;;;;;;;;4982426;28;1984;-74
2022/11/04 15:25:14;;;;;;;;;;;;;;;;;;4987215;28;1173;-74
2022/11/04 15:27:40;;;;;;;;;;;;;;;;;;4974275;28;1454;-74
2022/11/04 15:30:16;;;;;;;;;;;;;;;;;;4990286;28;1393;-74
2022/11/04 15:32:53;;;;;;;;;;;;;;;;;;4990967;28;1434;-74
2022/11/04 15:35:19;;;;;;;;;;;;;;;;;;4990613;28;1658;-73
2022/11/04 15:37:46;;;;;;;;;;;;;;;;;;4995128;28;1400;-73
2022/11/04 15:40:12;;;;;;;;;;;;;;;;;;4983389;28;1412;-73
2022/11/04 15:42:43;;;;;;;;;;;;;;;;;;4963007;28;1946;-73
2022/11/04 15:45:28;;;;;;;;;;;;;;;;;;4985492;28;1371;-75
2022/11/04 15:48:13;;;;;;;;;;;;;;;;;;5053935;28;1446;-74
2022/11/04 15:50:41;;;;;;;;;;;;;;;;;;5066005;28;2047;-74
2022/11/04 15:53:08;;;;;;;;;;;;;;;;;;4991003;28;2011;-74
2022/11/04 15:55:34;;;;;;;;;;;;;;;;;;4985549;28;2024;-74
2022/11/04 15:58:01;;;;;;;;;;;;;;;;;;4999106;22;3535;-79
2022/11/04 16:00:27;;;;;;;;;;;;;;;;;;5063454;28;1726;-80
2022/11/04 16:02:54;;;;;;;;;;;;;;;;;;5088065;28;1967;-79
2022/11/04 16:05:21;;;;;;;;;;;;;;;;;;5080514;28;1127;-80
2022/11/04 16:07:50;;;;;;;;;;;;;;;;;;5102357;28;1313;-79
2022/11/04 16:10:26;;;;;;;;;;;;;;;;;;5091633;28;1433;-80
2022/11/04 16:12:55;;;;;;;;;;;;;;;;;;5080561;28;1761;-82
2022/11/04 16:15:34;;;;;;;;;;;;;;;;;;5071394;28;2376;-83
2022/11/04 16:18:01;;;;;;;;;;;;;;;;;;5071407;28;2051;-82
2022/11/04 16:20:29;;;;;;;;;;;;;;;;;;5073671;28;2639;-81
2022/11/04 16:22:57;;;;;;;;;;;;;;;;;;5067249;28;1910;-82
2022/11/04 16:25:24;;;;;;;;;;;;;;;;;;5071957;28;1552;-80
2022/11/04 16:27:50;;;;;;;;;;;;;;;;;;5072980;28;1615;-80
2022/11/04 16:30:17;;;;;;;;;;;;;;;;;;5081406;28;1472;-80
2022/11/04 16:32:44;;;;;;;;;;;;;;;;;;5085149;28;1121;-80
2022/11/04 16:35:14;;;;;;;;;;;;;;;;;;5069674;28;2174;-80
2022/11/04 16:37:41;;;;;;;;;;;;;;;;;;5071719;28;2369;-81
2022/11/04 16:40:09;;;;;;;;;;;;;;;;;;5074807;28;1615;-81
2022/11/04 16:42:35;;;;;;;;;;;;;;;;;;5070169;28;2425;-80
2022/11/04 16:45:02;;;;;;;;;;;;;;;;;;5073450;28;1075;-80
2022/11/04 16:47:29;;;;;;;;;;;;;;;;;;5071047;28;1601;-79
2022/11/04 16:49:57;;;;;;;;;;;;;;;;;;5074271;28;1310;-81
2022/11/04 16:52:25;;;;;;;;;;;;;;;;;;5043792;28;1604;-80
2022/11/04 16:54:54;;;;;;;;;;;;;;;;;;5014114;28;1009;-82
2022/11/04 16:57:23;;;;;;;;;;;;;;;;;;5020735;28;1046;-79
2022/11/04 16:59:49;;;;;;;;;;;;;;;;;;5018354;28;1446;-82
2022/11/04 17:02:21;;;;;;;;;;;;;;;;;;5041194;28;1946;-81
2022/11/04 17:04:47;;;;;;;;;;;;;;;;;;5030569;28;1004;-83
2022/11/04 17:07:14;;;;;;;;;;;;;;;;;;5024118;28;1039;-81
2022/11/04 17:09:41;;;;;;;;;;;;;;;;;;5013539;28;1434;-82
2022/11/04 17:12:08;;;;;;;;;;;;;;;;;;5010507;28;1212;-80
2022/11/04 17:14:36;;;;;;;;;;;;;;;;;;5023132;28;1067;-80
2022/11/04 17:17:03;;;;;;;;;;;;;;;;;;5015634;28;1039;-81
2022/11/04 17:19:30;;;;;;;;;;;;;;;;;;5012146;28;1285;-81
2022/11/04 17:21:59;;;;;;;;;;;;;;;;;;5009347;28;2025;-81
2022/11/04 17:24:26;;;;;;;;;;;;;;;;;;5035133;28;1172;-81
2022/11/04 17:26:52;;;;;;;;;;;;;;;;;;5017155;28;1014;-81
2022/11/04 17:29:19;;;;;;;;;;;;;;;;;;5007391;28;1512;-81
2022/11/04 17:31:48;;;;;;;;;;;;;;;;;;5013158;28;1289;-81
2022/11/04 17:34:15;;;;;;;;;;;;;;;;;;5013205;28;1289;-81
2022/11/04 17:36:41;;;;;;;;;;;;;;;;;;5018628;28;952;-82
2022/11/04 17:39:08;;;;;;;;;;;;;;;;;;5011415;28;1302;-81
2022/11/04 17:44:19;;;;;;;;;;;;;;;;;;4988514;28;1468;-81